createdAt,value
2022-09-01T00:01:41.573Z,24.97
2022-09-01T00:04:47.420Z,24.95
2022-09-01T00:07:50.540Z,24.95
2022-09-01T00:10:53.700Z,24.91
2022-09-01T00:13:58.571Z,24.87
2022-09-01T00:17:07.054Z,24.79
2022-09-01T00:20:10.993Z,24.71
2022-09-01T00:23:14.041Z,24.58
2022-09-01T00:26:17.236Z,24.44
2022-09-01T00:29:20.481Z,24.22
2022-09-01T00:32:25.476Z,24.12
2022-09-01T00:35:28.679Z,24.22
2022-09-01T00:38:31.773Z,24.25
2022-09-01T00:41:38.908Z,24.49
2022-09-01T00:44:42.011Z,24.66
2022-09-01T00:47:46.472Z,24.73
2022-09-01T00:50:49.644Z,24.79
2022-09-01T00:53:59.986Z,24.85
2022-09-01T00:57:05.369Z,24.85
2022-09-01T01:00:12.405Z,24.84
2022-09-01T01:03:17.235Z,24.82
2022-09-01T01:06:26.902Z,24.83
2022-09-01T01:09:37.123Z,24.78
2022-09-01T01:12:43.419Z,24.75
2022-09-01T01:15:46.554Z,24.69
2022-09-01T01:18:51.159Z,24.63
2022-09-01T01:22:13.143Z,24.68
2022-09-01T01:25:19.127Z,24.76
2022-09-01T01:28:24.663Z,24.83
2022-09-01T01:31:27.755Z,24.79
2022-09-01T01:34:30.917Z,24.76
2022-09-01T01:37:36.447Z,24.82
2022-09-01T01:40:41.589Z,24.70
2022-09-01T01:43:44.801Z,24.28
2022-09-01T01:46:51.435Z,23.86
2022-09-01T01:49:54.502Z,23.83
2022-09-01T01:53:02.964Z,23.80
2022-09-01T01:56:18.426Z,24.09
2022-09-01T01:59:24.829Z,24.28
2022-09-01T02:02:28.047Z,24.32
2022-09-01T02:05:33.982Z,24.43
2022-09-01T02:08:38.703Z,24.43
2022-09-01T02:11:44.761Z,24.25
2022-09-01T02:14:48.578Z,24.14
2022-09-01T02:17:51.652Z,24.04
2022-09-01T02:20:55.790Z,24.21
2022-09-01T02:24:02.314Z,24.27
2022-09-01T02:27:07.013Z,24.39
2022-09-01T02:30:12.839Z,24.36
2022-09-01T02:33:19.321Z,24.31
2022-09-01T02:36:22.974Z,24.43
2022-09-01T02:39:29.339Z,24.36
2022-09-01T02:42:33.939Z,24.37
2022-09-01T02:45:37.378Z,24.43
2022-09-01T02:48:46.309Z,24.45
2022-09-01T02:51:54.185Z,24.42
2022-09-01T02:54:58.663Z,24.27
2022-09-01T02:58:03.156Z,24.09
2022-09-01T03:01:07.324Z,24.06
2022-09-01T03:04:13.355Z,24.12
2022-09-01T03:07:18.444Z,24.22
2022-09-01T03:10:22.064Z,24.22
2022-09-01T03:13:29.475Z,23.95
2022-09-01T03:16:33.351Z,23.77
2022-09-01T03:19:40.303Z,23.80
2022-09-01T03:22:44.466Z,23.84
2022-09-01T03:25:48.933Z,23.84
2022-09-01T03:28:53.891Z,23.89
2022-09-01T03:31:57.029Z,23.85
2022-09-01T03:35:00.344Z,23.84
2022-09-01T03:38:04.845Z,24.05
2022-09-01T03:41:09.400Z,24.14
2022-09-01T03:44:16.323Z,24.29
2022-09-01T03:47:21.237Z,24.35
2022-09-01T03:50:28.583Z,24.44
2022-09-01T03:53:37.761Z,24.32
2022-09-01T03:56:43.136Z,24.33
2022-09-01T03:59:47.707Z,24.37
2022-09-01T04:02:56.360Z,24.47
2022-09-01T04:06:00.711Z,24.52
2022-09-01T04:09:03.899Z,24.62
2022-09-01T04:12:09.107Z,24.62
2022-09-01T04:15:17.107Z,24.63
2022-09-01T04:18:20.680Z,24.67
2022-09-01T04:21:23.961Z,24.67
2022-09-01T04:24:29.551Z,24.45
2022-09-01T04:27:33.950Z,24.50
2022-09-01T04:30:40.831Z,24.56
2022-09-01T04:33:49.705Z,24.59
2022-09-01T04:36:56.999Z,24.58
2022-09-01T04:40:00.072Z,24.31
2022-09-01T04:43:03.197Z,24.20
2022-09-01T04:46:07.822Z,24.18
2022-09-01T04:49:12.882Z,24.28
2022-09-01T04:52:16.511Z,24.40
2022-09-01T04:55:19.790Z,24.19
2022-09-01T04:58:26.331Z,24.09
2022-09-01T05:01:30.834Z,24.11
2022-09-01T05:04:35.000Z,24.24
2022-09-01T05:07:38.113Z,24.18
2022-09-01T05:10:43.120Z,24.20
2022-09-01T05:13:48.346Z,24.34
2022-09-01T05:16:58.525Z,24.45
2022-09-01T05:20:02.069Z,24.49
2022-09-01T05:23:05.282Z,24.54
2022-09-01T05:26:17.007Z,24.56
2022-09-01T05:29:22.663Z,24.59
2022-09-01T05:32:27.626Z,24.59
2022-09-01T05:35:32.431Z,24.50
2022-09-01T05:38:36.377Z,24.49
2022-09-01T05:41:41.026Z,24.48
2022-09-01T05:44:44.472Z,24.34
2022-09-01T05:47:50.063Z,24.34
2022-09-01T05:50:58.131Z,24.39
2022-09-01T05:54:02.043Z,24.31
2022-09-01T05:57:30.359Z,24.18
2022-09-01T06:00:34.837Z,24.19
2022-09-01T06:03:41.495Z,24.14
2022-09-01T06:07:05.851Z,23.94
2022-09-01T06:10:11.684Z,23.94
2022-09-01T06:13:16.011Z,23.97
2022-09-01T06:16:19.773Z,24.17
2022-09-01T06:19:24.303Z,24.33
2022-09-01T06:22:29.426Z,24.27
2022-09-01T06:25:32.762Z,24.34
2022-09-01T06:28:41.458Z,24.24
2022-09-01T06:31:51.978Z,24.15
2022-09-01T06:34:58.232Z,24.17
2022-09-01T06:38:02.108Z,24.34
2022-09-01T06:41:13.039Z,24.38
2022-09-01T06:44:16.218Z,24.41
2022-09-01T06:47:19.532Z,24.35
2022-09-01T06:53:51.236Z,24.40
2022-09-01T06:56:54.410Z,24.43
2022-09-01T07:00:00.372Z,24.46
2022-09-01T07:03:09.365Z,24.35
2022-09-01T07:06:59.279Z,24.09
2022-09-01T07:09:47.648Z,24.01
2022-09-01T07:13:11.584Z,23.92
2022-09-01T07:16:33.305Z,23.99
2022-09-01T07:19:53.059Z,24.26
2022-09-01T07:23:07.146Z,24.45
2022-09-01T07:26:12.173Z,24.55
2022-09-01T07:29:15.312Z,24.62
2022-09-01T07:36:25.587Z,24.78
2022-09-01T07:46:00.481Z,24.87
2022-09-01T07:52:27.998Z,25.01
2022-09-01T07:55:33.183Z,25.07
2022-09-01T07:58:37.420Z,25.14
2022-09-01T08:01:40.544Z,25.07
2022-09-01T08:04:46.479Z,25.00
2022-09-01T08:07:53.197Z,25.00
2022-09-01T08:11:05.302Z,25.08
2022-09-01T08:14:08.703Z,25.12
2022-09-01T08:17:18.023Z,25.14
2022-09-01T08:20:21.424Z,25.22
2022-09-01T08:23:27.000Z,25.39
2022-09-01T08:26:31.499Z,25.49
2022-09-01T08:29:34.682Z,25.54
2022-09-01T08:32:38.263Z,25.58
2022-09-01T08:35:43.355Z,25.61
2022-09-01T08:38:46.566Z,25.67
2022-09-01T08:42:05.415Z,25.71
2022-09-01T08:45:17.401Z,25.74
2022-09-01T08:51:53.763Z,25.78
2022-09-01T08:55:03.574Z,25.75
2022-09-01T08:58:10.055Z,25.68
2022-09-01T09:01:21.896Z,25.80
2022-09-01T09:04:41.256Z,25.86
2022-09-01T09:08:07.881Z,25.90
2022-09-01T09:11:24.299Z,25.90
2022-09-01T09:14:46.880Z,25.94
2022-09-01T09:18:00.257Z,25.92
2022-09-01T09:21:13.194Z,25.88
2022-09-01T09:24:25.065Z,25.79
2022-09-01T09:27:34.414Z,25.75
2022-09-01T09:30:39.212Z,25.75
2022-09-01T09:33:51.870Z,25.73
2022-09-01T09:36:57.364Z,25.71
2022-09-01T09:40:11.126Z,25.77
2022-09-01T09:43:17.219Z,25.84
2022-09-01T09:46:28.702Z,25.91
2022-09-01T09:49:36.593Z,25.93
2022-09-01T09:52:46.176Z,25.97
2022-09-01T09:55:56.832Z,26.01
2022-09-01T09:59:00.031Z,26.04
2022-09-01T10:02:19.046Z,26.07
2022-09-01T10:05:33.410Z,26.08
2022-09-01T10:08:45.327Z,26.08
2022-09-01T10:11:53.034Z,26.07
2022-09-01T10:15:04.705Z,26.04
2022-09-01T10:18:28.790Z,26.00
2022-09-01T10:21:35.600Z,25.94
2022-09-01T10:24:44.745Z,25.93
2022-09-01T10:27:54.235Z,25.88
2022-09-01T10:30:59.186Z,25.86
2022-09-01T10:34:06.843Z,25.85
2022-09-01T10:37:11.564Z,25.84
2022-09-01T10:40:20.986Z,25.82
2022-09-01T10:43:41.078Z,25.80
2022-09-01T10:46:50.886Z,25.80
2022-09-01T10:50:10.458Z,25.78
2022-09-01T10:53:39.386Z,25.78
2022-09-01T10:56:51.324Z,25.77
2022-09-01T10:59:56.659Z,25.78
2022-09-01T11:03:40.907Z,25.79
2022-09-01T11:07:24.283Z,25.77
2022-09-01T11:10:53.032Z,25.78
2022-09-01T11:13:58.923Z,25.78
2022-09-01T11:17:25.358Z,25.79
2022-09-01T11:20:31.046Z,25.78
2022-09-01T11:23:35.739Z,25.78
2022-09-01T11:26:50.014Z,25.77
2022-09-01T11:29:55.872Z,25.78
2022-09-01T11:33:13.945Z,25.79
2022-09-01T11:36:28.724Z,25.87
2022-09-01T11:39:50.013Z,25.91
2022-09-01T11:42:55.415Z,25.93
2022-09-01T11:46:11.741Z,25.95
2022-09-01T11:49:31.361Z,25.98
2022-09-01T11:52:37.675Z,25.96
2022-09-01T11:55:44.148Z,25.93
2022-09-01T11:58:48.471Z,25.91
2022-09-01T12:01:58.520Z,25.88
2022-09-01T12:05:03.249Z,25.88
2022-09-01T12:08:15.209Z,25.86
2022-09-01T12:11:27.098Z,25.86
2022-09-01T12:14:48.860Z,25.84
2022-09-01T12:17:54.657Z,25.83
2022-09-01T12:20:59.833Z,25.81
2022-09-01T12:24:16.251Z,25.79
2022-09-01T12:27:23.250Z,25.79
2022-09-01T12:30:27.339Z,25.78
2022-09-01T12:33:31.300Z,25.79
2022-09-01T12:36:37.423Z,25.81
2022-09-01T12:39:42.723Z,25.80
2022-09-01T12:42:54.231Z,25.82
2022-09-01T12:46:00.129Z,25.78
2022-09-01T12:49:18.889Z,25.79
2022-09-01T12:52:26.630Z,25.79
2022-09-01T12:59:11.930Z,25.79
2022-09-01T13:02:28.824Z,25.80
2022-09-01T13:05:40.948Z,25.77
2022-09-01T13:08:46.236Z,25.77
2022-09-01T13:12:06.712Z,25.79
2022-09-01T13:18:22.793Z,25.76
2022-09-01T13:21:27.612Z,25.74
2022-09-01T13:24:31.907Z,25.77
2022-09-01T13:27:35.218Z,25.81
2022-09-01T13:30:41.033Z,25.87
2022-09-01T13:37:07.225Z,25.86
2022-09-01T13:40:15.687Z,25.85
2022-09-01T13:43:22.152Z,25.87
2022-09-01T13:46:26.802Z,25.82
2022-09-01T13:50:06.475Z,25.77
2022-09-01T13:52:58.329Z,25.67
2022-09-01T13:56:01.947Z,25.63
2022-09-01T13:59:05.096Z,25.63
2022-09-01T14:02:10.439Z,25.44
2022-09-01T14:05:13.555Z,25.42
2022-09-01T14:08:19.205Z,25.39
2022-09-01T14:11:22.336Z,25.30
2022-09-01T14:14:25.627Z,25.31
2022-09-01T14:17:30.165Z,25.28
2022-09-01T14:20:37.677Z,25.27
2022-09-01T14:23:40.819Z,25.18
2022-09-01T14:26:44.132Z,25.19
2022-09-01T14:29:51.247Z,25.18
2022-09-01T14:32:59.847Z,25.18
2022-09-01T14:36:03.366Z,25.09
2022-09-01T14:39:06.682Z,25.07
2022-09-01T14:42:11.982Z,25.10
2022-09-01T14:45:16.550Z,25.20
2022-09-01T14:48:21.641Z,25.15
2022-09-01T14:52:10.209Z,25.13
2022-09-01T14:54:51.294Z,25.21
2022-09-01T14:57:55.157Z,25.23
2022-09-01T15:01:11.899Z,25.22
2022-09-01T15:04:23.979Z,25.26
2022-09-01T15:07:27.138Z,25.20
2022-09-01T15:10:30.454Z,25.01
2022-09-01T15:13:33.534Z,24.94
2022-09-01T15:16:39.771Z,24.88
2022-09-01T15:19:44.370Z,24.95
2022-09-01T15:22:47.586Z,25.04
2022-09-01T15:25:53.282Z,25.15
2022-09-01T15:28:57.024Z,25.23
2022-09-01T15:32:00.196Z,25.29
2022-09-01T15:35:05.876Z,25.36
2022-09-01T15:38:09.062Z,25.41
2022-09-01T15:41:17.650Z,25.41
2022-09-01T15:44:20.825Z,25.44
2022-09-01T15:47:23.882Z,25.46
2022-09-01T15:50:28.596Z,25.50
2022-09-01T15:53:31.672Z,25.50
2022-09-01T15:56:34.976Z,25.51
2022-09-01T15:59:40.166Z,25.51
2022-09-01T16:02:43.602Z,25.51
2022-09-01T16:05:48.104Z,25.51
2022-09-01T16:08:54.534Z,25.52
2022-09-01T16:11:57.696Z,25.49
2022-09-01T16:15:03.364Z,25.50
2022-09-01T16:18:25.476Z,25.50
2022-09-01T16:21:41.362Z,25.52
2022-09-01T16:24:46.733Z,25.52
2022-09-01T16:27:50.703Z,25.50
2022-09-01T16:30:58.365Z,25.54
2022-09-01T16:34:03.840Z,25.54
2022-09-01T16:37:15.407Z,25.55
2022-09-01T16:40:31.107Z,25.55
2022-09-01T16:43:41.782Z,25.57
2022-09-01T16:46:51.760Z,25.55
2022-09-01T16:50:05.275Z,25.61
2022-09-01T16:53:18.173Z,25.68
2022-09-01T16:56:26.952Z,25.74
2022-09-01T16:59:39.553Z,25.67
2022-09-01T17:02:55.127Z,25.55
2022-09-01T17:06:13.768Z,25.48
2022-09-01T17:09:25.059Z,25.30
2022-09-01T17:12:34.567Z,25.03
2022-09-01T17:15:41.190Z,24.78
2022-09-01T17:18:48.697Z,24.62
2022-09-01T17:22:00.421Z,24.77
2022-09-01T17:25:10.243Z,24.69
2022-09-01T17:28:17.214Z,24.91
2022-09-01T17:31:34.536Z,25.07
2022-09-01T17:34:50.004Z,25.15
2022-09-01T17:38:05.899Z,25.12
2022-09-01T17:41:23.655Z,25.12
2022-09-01T17:44:35.753Z,25.19
2022-09-01T17:47:47.743Z,25.27
2022-09-01T17:51:03.730Z,25.34
2022-09-01T17:54:18.846Z,25.42
2022-09-01T17:57:33.451Z,25.43
2022-09-01T18:00:42.177Z,25.44
2022-09-01T18:04:02.159Z,25.42
2022-09-01T18:07:18.468Z,25.36
2022-09-01T18:10:27.703Z,25.32
2022-09-01T18:13:52.990Z,25.31
2022-09-01T18:17:02.018Z,25.29
2022-09-01T18:20:10.171Z,25.23
2022-09-01T18:23:15.143Z,25.30
2022-09-01T18:26:27.322Z,25.37
2022-09-01T18:29:31.883Z,25.43
2022-09-01T18:32:43.167Z,25.44
2022-09-01T18:35:53.753Z,25.50
2022-09-01T18:39:01.439Z,25.46
2022-09-01T18:42:15.416Z,25.40
2022-09-01T18:45:33.325Z,25.36
2022-09-01T18:48:51.208Z,25.28
2022-09-01T18:52:05.213Z,25.26
2022-09-01T18:55:19.379Z,25.27
2022-09-01T18:58:40.914Z,25.35
2022-09-01T19:01:55.143Z,25.36
2022-09-01T19:05:00.611Z,25.39
2022-09-01T19:08:14.915Z,25.40
2022-09-01T19:11:31.766Z,25.40
2022-09-01T19:14:43.612Z,25.41
2022-09-01T19:18:13.135Z,25.43
2022-09-01T19:21:22.510Z,25.45
2022-09-01T19:24:31.434Z,25.44
2022-09-01T19:27:37.255Z,25.46
2022-09-01T19:30:44.003Z,25.49
2022-09-01T19:33:51.734Z,25.48
2022-09-01T19:36:57.074Z,25.49
2022-09-01T19:40:01.089Z,25.46
2022-09-01T19:43:07.491Z,25.43
2022-09-01T19:46:22.415Z,25.41
2022-09-01T19:49:39.417Z,25.41
2022-09-01T19:52:52.243Z,25.41
2022-09-01T19:56:03.576Z,25.38
2022-09-01T19:59:17.237Z,25.32
2022-09-01T20:02:28.278Z,25.28
2022-09-01T20:05:37.041Z,25.31
2022-09-01T20:08:46.544Z,25.29
2022-09-01T20:11:54.782Z,25.28
2022-09-01T20:15:09.309Z,25.26
2022-09-01T20:18:24.790Z,25.27
2022-09-01T20:21:29.719Z,25.29
2022-09-01T20:24:37.350Z,25.29
2022-09-01T20:27:51.317Z,25.26
2022-09-01T20:31:03.226Z,25.28
2022-09-01T20:34:11.410Z,25.28
2022-09-01T20:37:22.360Z,25.27
2022-09-01T20:40:27.655Z,25.26
2022-09-01T20:43:36.758Z,25.28
2022-09-01T20:46:39.971Z,25.26
2022-09-01T20:49:43.213Z,25.26
2022-09-01T20:53:01.948Z,25.26
2022-09-01T20:56:10.443Z,25.25
2022-09-01T20:59:19.050Z,25.23
2022-09-01T21:02:34.808Z,25.23
2022-09-01T21:05:49.810Z,25.23
2022-09-01T21:09:02.841Z,25.19
2022-09-01T21:12:09.859Z,25.19
2022-09-01T21:15:24.782Z,25.17
2022-09-01T21:18:41.195Z,25.17
2022-09-01T21:21:57.855Z,25.17
2022-09-01T21:25:02.456Z,25.18
2022-09-01T21:28:07.248Z,25.18
2022-09-01T21:31:10.568Z,25.17
2022-09-01T21:34:16.828Z,25.16
2022-09-01T21:37:22.447Z,25.11
2022-09-01T21:40:27.255Z,25.11
2022-09-01T21:43:32.956Z,25.09
2022-09-01T21:46:36.215Z,25.09
2022-09-01T21:49:39.308Z,25.05
2022-09-01T21:52:42.571Z,25.06
2022-09-01T21:55:47.205Z,25.09
2022-09-01T21:58:50.287Z,25.11
2022-09-01T22:01:53.783Z,25.09
2022-09-01T22:04:57.393Z,25.09
2022-09-01T22:08:01.655Z,25.12
2022-09-01T22:11:09.879Z,25.12
2022-09-01T22:14:13.178Z,25.09
2022-09-01T22:17:16.289Z,25.11
2022-09-01T22:20:22.657Z,25.12
2022-09-01T22:23:25.760Z,25.11
2022-09-01T22:26:33.986Z,25.12
2022-09-01T22:29:37.106Z,25.12
2022-09-01T22:32:45.443Z,25.11
2022-09-01T22:35:50.756Z,25.11
2022-09-01T22:38:55.819Z,25.11
2022-09-01T22:42:00.346Z,25.10
2022-09-01T22:45:03.758Z,25.08
2022-09-01T22:48:06.889Z,25.05
2022-09-01T22:51:11.402Z,25.12
2022-09-01T22:54:14.505Z,25.07
2022-09-01T22:57:20.304Z,25.05
2022-09-01T23:00:24.323Z,25.00
2022-09-01T23:03:27.446Z,25.02
2022-09-01T23:06:31.952Z,25.01
2022-09-01T23:09:36.400Z,24.92
2022-09-01T23:12:41.048Z,24.89
2022-09-01T23:15:44.176Z,24.84
2022-09-01T23:18:48.781Z,24.86
2022-09-01T23:21:52.954Z,24.83
2022-09-01T23:24:56.195Z,24.83
2022-09-01T23:28:00.654Z,24.78
2022-09-01T23:31:03.838Z,24.77
2022-09-01T23:34:09.392Z,24.77
2022-09-01T23:37:12.494Z,24.79
2022-09-01T23:40:15.671Z,24.83
2022-09-01T23:43:22.224Z,24.81
2022-09-01T23:46:28.357Z,24.81
2022-09-01T23:49:31.423Z,24.79
2022-09-01T23:52:34.668Z,24.84
2022-09-01T23:55:43.537Z,24.88
2022-09-01T23:58:48.886Z,24.86
